createdAt,value
2019-05-30T00:01:42.025Z,100.00
2019-05-30T00:04:49.428Z,100.00
2019-05-30T00:07:58.257Z,100.00
2019-05-30T00:11:07.245Z,100.00
2019-05-30T00:14:15.066Z,100.00
2019-05-30T00:17:22.822Z,100.00
2019-05-30T00:20:34.219Z,100.00
2019-05-30T00:23:42.634Z,100.00
2019-05-30T00:26:50.488Z,100.00
2019-05-30T00:29:57.789Z,100.00
2019-05-30T00:33:05.340Z,100.00
2019-05-30T00:36:13.394Z,100.00
2019-05-30T00:39:21.475Z,100.00
2019-05-30T00:42:28.964Z,100.00
2019-05-30T00:45:36.960Z,100.00
2019-05-30T00:48:44.565Z,100.00
2019-05-30T00:51:52.221Z,100.00
2019-05-30T00:55:00.663Z,100.00
2019-05-30T00:58:08.462Z,100.00
2019-05-30T01:01:16.218Z,100.00
2019-05-30T01:04:23.532Z,100.00
2019-05-30T01:07:32.156Z,100.00
2019-05-30T01:10:39.722Z,100.00
2019-05-30T01:13:47.289Z,100.00
2019-05-30T01:16:54.901Z,100.00
2019-05-30T01:20:03.399Z,100.00
2019-05-30T01:23:10.897Z,100.00
2019-05-30T01:26:18.552Z,100.00
2019-05-30T01:29:26.148Z,100.00
2019-05-30T01:32:34.021Z,100.00
2019-05-30T01:35:44.396Z,100.00
2019-05-30T01:38:53.214Z,100.00
2019-05-30T01:42:01.850Z,100.00
2019-05-30T01:45:10.272Z,100.00
2019-05-30T01:48:21.329Z,100.00
2019-05-30T01:51:29.157Z,100.00
2019-05-30T01:54:37.749Z,100.00
2019-05-30T01:57:45.250Z,100.00
2019-05-30T02:00:52.854Z,100.00
2019-05-30T02:04:19.105Z,100.00
2019-05-30T02:07:27.211Z,100.00
2019-05-30T02:10:35.525Z,100.00
2019-05-30T02:13:43.296Z,100.00
2019-05-30T02:16:50.723Z,100.00
2019-05-30T02:19:57.942Z,100.00
2019-05-30T02:23:07.332Z,100.00
2019-05-30T02:26:14.986Z,100.00
2019-05-30T02:29:22.388Z,100.00
2019-05-30T02:32:30.135Z,100.00
2019-05-30T02:35:37.522Z,100.00
2019-05-30T02:38:45.046Z,100.00
2019-05-30T02:41:52.433Z,100.00
2019-05-30T02:45:01.397Z,100.00
2019-05-30T02:48:10.383Z,100.00
2019-05-30T02:51:19.311Z,100.00
2019-05-30T02:54:26.897Z,100.00
2019-05-30T02:57:35.407Z,100.00
2019-05-30T03:00:42.930Z,100.00
2019-05-30T03:03:50.332Z,100.00
2019-05-30T03:06:58.084Z,100.00
2019-05-30T03:10:09.238Z,100.00
2019-05-30T03:13:16.845Z,100.00
2019-05-30T03:16:24.841Z,100.00
2019-05-30T03:19:32.946Z,100.00
2019-05-30T03:22:40.697Z,100.00
2019-05-30T03:25:48.224Z,100.00
2019-05-30T03:28:55.690Z,100.00
2019-05-30T03:32:38.756Z,100.00
2019-05-30T03:35:26.800Z,100.00
2019-05-30T03:38:24.349Z,100.00
2019-05-30T03:41:31.858Z,100.00
2019-05-30T03:44:40.126Z,100.00
2019-05-30T03:47:53.867Z,100.00
2019-05-30T03:51:06.199Z,100.00
2019-05-30T03:54:16.769Z,100.00
2019-05-30T03:57:32.791Z,100.00
2019-05-30T04:00:51.363Z,100.00
2019-05-30T04:04:16.803Z,100.00
2019-05-30T04:07:28.746Z,100.00
2019-05-30T04:10:41.463Z,100.00
2019-05-30T04:13:55.294Z,100.00
2019-05-30T04:17:02.700Z,100.00
2019-05-30T04:20:13.793Z,100.00
2019-05-30T04:23:21.306Z,100.00
2019-05-30T04:26:29.315Z,100.00
2019-05-30T04:29:37.201Z,100.00
2019-05-30T04:32:44.903Z,100.00
2019-05-30T04:35:52.609Z,100.00
2019-05-30T04:38:59.923Z,100.00
2019-05-30T04:42:09.277Z,100.00
2019-05-30T04:45:17.913Z,100.00
2019-05-30T04:48:25.990Z,100.00
2019-05-30T04:51:33.406Z,100.00
2019-05-30T04:54:41.785Z,100.00
2019-05-30T04:57:50.116Z,100.00
2019-05-30T05:00:57.536Z,100.00
2019-05-30T05:04:05.914Z,100.00
2019-05-30T05:07:15.553Z,100.00
2019-05-30T05:10:23.688Z,100.00
2019-05-30T05:13:31.852Z,100.00
2019-05-30T05:16:39.905Z,100.00
2019-05-30T05:19:47.879Z,100.00
2019-05-30T05:22:55.463Z,100.00
2019-05-30T05:26:03.364Z,100.00
2019-05-30T05:29:11.668Z,100.00
2019-05-30T05:32:20.395Z,100.00
2019-05-30T05:35:52.979Z,100.00
2019-05-30T05:39:00.689Z,100.00
2019-05-30T05:42:08.548Z,100.00
2019-05-30T05:45:18.259Z,100.00
2019-05-30T05:48:28.869Z,100.00
2019-05-30T05:51:36.331Z,100.00
2019-05-30T05:54:44.215Z,100.00
2019-05-30T05:57:51.950Z,99.95
2019-05-30T06:00:59.528Z,97.53
2019-05-30T06:04:13.047Z,95.86
2019-05-30T06:07:18.116Z,97.17
2019-05-30T06:10:27.884Z,98.75
2019-05-30T06:13:36.044Z,93.34
2019-05-30T06:16:43.807Z,82.89
2019-05-30T06:19:51.718Z,85.29
2019-05-30T06:23:00.178Z,89.24
2019-05-30T06:26:09.559Z,84.53
2019-05-30T06:29:17.962Z,72.34
2019-05-30T06:32:26.747Z,67.58
2019-05-30T06:35:34.349Z,67.97
2019-05-30T06:38:42.136Z,70.83
2019-05-30T06:41:50.507Z,67.30
2019-05-30T06:44:58.426Z,64.03
2019-05-30T06:48:06.112Z,76.66
2019-05-30T06:51:14.608Z,74.89
2019-05-30T06:54:24.226Z,70.45
2019-05-30T06:57:31.776Z,64.13
2019-05-30T07:00:39.458Z,59.25
2019-05-30T07:03:46.941Z,68.06
2019-05-30T07:06:55.352Z,75.12
2019-05-30T07:10:06.684Z,75.31
2019-05-30T07:13:14.256Z,74.55
2019-05-30T07:16:21.776Z,76.45
2019-05-30T07:19:29.614Z,74.73
2019-05-30T07:22:36.892Z,74.72
2019-05-30T07:25:44.345Z,75.77
2019-05-30T07:28:52.501Z,72.19
2019-05-30T07:32:00.811Z,64.47
2019-05-30T07:35:09.703Z,64.01
2019-05-30T07:38:16.898Z,67.04
2019-05-30T07:41:24.688Z,63.11
2019-05-30T07:44:32.855Z,65.67
2019-05-30T07:47:43.822Z,68.50
2019-05-30T07:50:51.412Z,70.69
2019-05-30T07:53:59.117Z,71.00
2019-05-30T07:57:06.596Z,78.00
2019-05-30T08:00:16.441Z,80.49
2019-05-30T08:03:24.048Z,82.43
2019-05-30T08:06:31.589Z,82.29
2019-05-30T08:09:39.775Z,81.86
2019-05-30T08:12:47.160Z,78.76
2019-05-30T08:15:55.138Z,80.11
2019-05-30T08:19:02.937Z,78.74
2019-05-30T08:22:11.491Z,71.92
2019-05-30T08:25:19.435Z,73.60
2019-05-30T08:28:28.661Z,72.04
2019-05-30T08:31:36.921Z,70.11
2019-05-30T08:34:44.550Z,70.71
2019-05-30T08:37:52.289Z,68.94
2019-05-30T08:41:00.684Z,65.38
2019-05-30T08:44:08.269Z,63.87
2019-05-30T08:47:15.862Z,62.49
2019-05-30T08:50:24.024Z,67.46
2019-05-30T08:53:32.657Z,69.97
2019-05-30T08:56:40.666Z,72.02
2019-05-30T08:59:49.268Z,73.61
2019-05-30T09:02:59.219Z,67.82
2019-05-30T09:06:09.781Z,69.90
2019-05-30T09:09:21.197Z,73.55
2019-05-30T09:12:29.398Z,71.24
2019-05-30T09:15:41.085Z,67.40
2019-05-30T09:18:49.854Z,67.86
2019-05-30T09:21:57.616Z,69.08
2019-05-30T09:25:06.576Z,68.45
2019-05-30T09:28:14.891Z,67.25
2019-05-30T09:31:22.460Z,67.50
2019-05-30T09:34:30.955Z,70.14
2019-05-30T09:37:38.728Z,66.78
2019-05-30T09:40:47.756Z,67.43
2019-05-30T09:43:56.123Z,63.25
2019-05-30T09:47:04.199Z,66.14
2019-05-30T09:50:13.581Z,63.94
2019-05-30T09:53:21.706Z,65.61
2019-05-30T09:56:29.873Z,69.02
2019-05-30T09:59:38.099Z,68.22
2019-05-30T10:02:46.755Z,66.53
2019-05-30T10:05:54.409Z,69.89
2019-05-30T10:09:07.075Z,69.58
2019-05-30T10:12:15.048Z,69.01
2019-05-30T10:15:23.275Z,68.50
2019-05-30T10:18:31.235Z,67.20
2019-05-30T10:21:39.104Z,66.87
2019-05-30T10:24:49.137Z,66.34
2019-05-30T10:27:58.672Z,63.82
2019-05-30T10:31:06.348Z,65.08
2019-05-30T10:34:16.297Z,63.61
2019-05-30T10:37:24.110Z,60.93
2019-05-30T10:40:32.421Z,63.99
2019-05-30T10:43:41.062Z,63.90
2019-05-30T10:46:48.966Z,64.48
2019-05-30T10:49:57.966Z,59.71
2019-05-30T10:53:05.529Z,60.01
2019-05-30T10:56:13.406Z,65.32
2019-05-30T10:59:22.528Z,63.53
2019-05-30T11:02:49.397Z,58.33
2019-05-30T11:06:14.183Z,58.91
2019-05-30T11:09:27.883Z,61.37
2019-05-30T11:12:35.466Z,63.96
2019-05-30T11:15:44.253Z,61.66
2019-05-30T11:18:53.124Z,63.34
2019-05-30T11:22:02.350Z,59.11
2019-05-30T11:25:10.683Z,61.12
2019-05-30T11:28:18.188Z,63.50
2019-05-30T11:31:26.367Z,62.18
2019-05-30T11:34:34.906Z,59.97
2019-05-30T11:37:42.727Z,61.92
2019-05-30T11:40:53.445Z,59.13
2019-05-30T11:44:04.140Z,57.07
2019-05-30T11:47:10.488Z,58.03
2019-05-30T11:50:18.260Z,58.54
2019-05-30T11:53:26.041Z,56.25
2019-05-30T11:56:34.634Z,54.10
2019-05-30T11:59:42.320Z,57.08
2019-05-30T12:02:50.331Z,56.65
2019-05-30T12:05:58.680Z,57.58
2019-05-30T12:09:07.457Z,55.81
2019-05-30T12:12:15.466Z,59.90
2019-05-30T12:15:23.158Z,56.14
2019-05-30T12:18:30.684Z,58.15
2019-05-30T12:21:38.647Z,58.29
2019-05-30T12:24:46.385Z,58.39
2019-05-30T12:27:54.200Z,57.41
2019-05-30T12:31:06.290Z,53.78
2019-05-30T12:34:12.188Z,53.55
2019-05-30T12:37:23.500Z,56.27
2019-05-30T12:40:30.161Z,58.53
2019-05-30T12:43:37.660Z,58.62
2019-05-30T12:46:45.518Z,59.94
2019-05-30T12:49:53.609Z,61.16
2019-05-30T12:53:02.150Z,60.94
2019-05-30T12:56:10.364Z,58.70
2019-05-30T12:59:17.873Z,62.49
2019-05-30T13:02:25.621Z,61.89
2019-05-30T13:05:33.588Z,61.87
2019-05-30T13:08:44.850Z,65.16
2019-05-30T13:11:54.273Z,63.06
2019-05-30T13:15:03.854Z,64.30
2019-05-30T13:18:11.272Z,66.79
2019-05-30T13:21:19.446Z,62.79
2019-05-30T13:24:26.854Z,62.29
2019-05-30T13:27:34.400Z,62.82
2019-05-30T13:30:41.984Z,59.55
2019-05-30T13:33:49.858Z,61.92
2019-05-30T13:36:58.818Z,61.07
2019-05-30T13:40:24.443Z,60.42
2019-05-30T13:43:19.689Z,58.72
2019-05-30T13:46:27.656Z,58.55
2019-05-30T13:49:35.932Z,60.64
2019-05-30T13:52:43.541Z,59.35
2019-05-30T13:55:51.037Z,60.05
2019-05-30T13:58:59.664Z,56.05
2019-05-30T14:02:11.111Z,57.00
2019-05-30T14:05:21.146Z,58.45
2019-05-30T14:08:41.177Z,58.61
2019-05-30T14:11:40.258Z,58.17
2019-05-30T14:14:48.473Z,56.46
2019-05-30T14:17:58.723Z,57.21
2019-05-30T14:21:07.478Z,59.90
2019-05-30T14:24:17.426Z,59.97
2019-05-30T14:27:29.199Z,55.92
2019-05-30T14:30:34.351Z,57.47
2019-05-30T14:33:42.014Z,59.08
2019-05-30T14:36:49.570Z,59.88
2019-05-30T14:39:58.164Z,57.72
2019-05-30T14:43:05.474Z,60.80
2019-05-30T14:46:13.748Z,58.96
2019-05-30T14:49:21.494Z,59.43
2019-05-30T14:52:29.803Z,57.01
2019-05-30T14:55:38.116Z,56.99
2019-05-30T14:58:46.520Z,56.98
2019-05-30T15:01:53.907Z,59.15
2019-05-30T15:05:01.413Z,58.30
2019-05-30T15:08:08.774Z,56.27
2019-05-30T15:11:16.680Z,57.15
2019-05-30T15:14:24.017Z,55.99
2019-05-30T15:17:31.733Z,57.55
2019-05-30T15:20:39.249Z,56.86
2019-05-30T15:23:47.941Z,57.64
2019-05-30T15:26:55.963Z,58.94
2019-05-30T15:30:04.402Z,60.65
2019-05-30T15:33:12.682Z,59.89
2019-05-30T15:36:20.264Z,60.11
2019-05-30T15:39:32.710Z,60.31
2019-05-30T15:42:38.219Z,61.00
2019-05-30T15:45:46.037Z,59.56
2019-05-30T15:48:53.605Z,60.09
2019-05-30T15:52:01.851Z,61.38
2019-05-30T15:55:11.186Z,61.25
2019-05-30T15:58:20.500Z,62.26
2019-05-30T16:01:28.246Z,61.03
2019-05-30T16:04:36.028Z,63.42
2019-05-30T16:07:44.288Z,64.60
2019-05-30T16:10:51.863Z,64.35
2019-05-30T16:13:59.331Z,63.82
2019-05-30T16:17:06.979Z,62.11
2019-05-30T16:20:16.054Z,62.21
2019-05-30T16:23:23.418Z,61.16
2019-05-30T16:26:31.157Z,60.94
2019-05-30T16:29:38.947Z,61.15
2019-05-30T16:32:46.561Z,64.40
2019-05-30T16:35:54.380Z,62.04
2019-05-30T16:39:04.202Z,63.19
2019-05-30T16:42:12.764Z,62.80
2019-05-30T16:45:25.186Z,60.65
2019-05-30T16:48:33.544Z,61.62
2019-05-30T16:51:41.139Z,62.42
2019-05-30T16:54:48.899Z,63.26
2019-05-30T16:57:57.047Z,65.22
2019-05-30T17:01:05.415Z,65.45
2019-05-30T17:04:13.018Z,57.96
2019-05-30T17:07:21.478Z,56.36
2019-05-30T17:10:33.093Z,54.87
2019-05-30T17:13:39.005Z,53.80
2019-05-30T17:16:46.831Z,53.77
2019-05-30T17:19:54.921Z,52.10
2019-05-30T17:23:02.803Z,52.09
2019-05-30T17:26:10.726Z,52.16
2019-05-30T17:29:19.468Z,54.11
2019-05-30T17:32:28.006Z,55.87
2019-05-30T17:35:36.465Z,55.58
2019-05-30T17:38:43.961Z,56.13
2019-05-30T17:41:52.086Z,57.04
2019-05-30T17:44:59.548Z,58.48
2019-05-30T17:48:16.129Z,59.86
2019-05-30T17:51:17.221Z,58.22
2019-05-30T17:54:26.000Z,59.30
2019-05-30T17:57:34.014Z,60.83
2019-05-30T18:00:41.408Z,60.17
2019-05-30T18:03:49.276Z,61.15
2019-05-30T18:06:57.066Z,61.57
2019-05-30T18:10:05.787Z,63.77
2019-05-30T18:13:13.685Z,64.88
2019-05-30T18:16:22.970Z,66.46
2019-05-30T18:19:31.529Z,67.34
2019-05-30T18:22:39.506Z,68.84
2019-05-30T18:25:47.982Z,69.29
2019-05-30T18:28:56.031Z,70.44
2019-05-30T18:32:03.632Z,71.90
2019-05-30T18:35:13.902Z,72.55
2019-05-30T18:38:22.466Z,73.46
2019-05-30T18:41:30.917Z,74.54
2019-05-30T18:44:39.431Z,74.75
2019-05-30T18:47:47.929Z,76.83
2019-05-30T18:50:56.133Z,78.00
2019-05-30T18:54:03.973Z,79.98
2019-05-30T18:57:11.781Z,80.32
2019-05-30T19:00:19.364Z,80.95
2019-05-30T19:03:28.495Z,81.98
2019-05-30T19:06:36.433Z,83.46
2019-05-30T19:09:44.154Z,86.60
2019-05-30T19:12:51.885Z,89.03
2019-05-30T19:16:00.204Z,88.78
2019-05-30T19:19:07.689Z,89.35
2019-05-30T19:22:15.009Z,91.27
2019-05-30T19:25:22.490Z,92.57
2019-05-30T19:28:30.526Z,93.62
2019-05-30T19:31:38.211Z,93.97
2019-05-30T19:34:45.796Z,94.47
2019-05-30T19:37:54.173Z,95.27
2019-05-30T19:41:02.211Z,95.97
2019-05-30T19:44:09.741Z,96.16
2019-05-30T19:47:17.404Z,96.29
2019-05-30T19:50:24.939Z,97.30
2019-05-30T19:53:33.215Z,98.53
2019-05-30T19:56:42.064Z,99.40
2019-05-30T19:59:49.819Z,99.82
2019-05-30T20:02:57.985Z,100.00
2019-05-30T20:06:05.772Z,100.00
2019-05-30T20:09:13.437Z,100.00
2019-05-30T20:12:23.437Z,99.61
2019-05-30T20:15:31.361Z,99.09
2019-05-30T20:18:44.062Z,99.42
2019-05-30T20:21:54.886Z,100.00
2019-05-30T20:25:06.158Z,100.00
2019-05-30T20:28:14.303Z,100.00
2019-05-30T20:31:21.873Z,100.00
2019-05-30T20:34:29.674Z,100.00
2019-05-30T20:37:38.635Z,100.00
2019-05-30T20:40:47.158Z,100.00
2019-05-30T20:43:54.678Z,100.00
2019-05-30T20:47:02.594Z,100.00
2019-05-30T20:50:12.869Z,100.00
2019-05-30T20:53:20.684Z,100.00
2019-05-30T20:56:29.619Z,100.00
2019-05-30T20:59:38.513Z,100.00
2019-05-30T21:02:47.138Z,100.00
2019-05-30T21:05:56.815Z,100.00
2019-05-30T21:09:06.282Z,100.00
2019-05-30T21:12:15.319Z,100.00
2019-05-30T21:15:24.788Z,100.00
2019-05-30T21:18:35.666Z,100.00
2019-05-30T21:21:44.282Z,100.00
2019-05-30T21:24:53.708Z,100.00
2019-05-30T21:28:03.475Z,100.00
2019-05-30T21:31:11.525Z,100.00
2019-05-30T21:34:19.817Z,100.00
2019-05-30T21:37:28.369Z,100.00
2019-05-30T21:40:35.814Z,100.00
2019-05-30T21:43:44.491Z,100.00
2019-05-30T21:46:53.090Z,100.00
2019-05-30T21:50:03.298Z,100.00
2019-05-30T21:53:11.764Z,100.00
2019-05-30T21:56:19.177Z,100.00
2019-05-30T21:59:27.757Z,100.00
2019-05-30T22:02:35.765Z,100.00
2019-05-30T22:05:43.242Z,100.00
2019-05-30T22:08:51.588Z,100.00
2019-05-30T22:11:59.121Z,100.00
2019-05-30T22:15:07.241Z,100.00
2019-05-30T22:18:15.040Z,100.00
2019-05-30T22:24:31.251Z,100.00
2019-05-30T22:27:39.060Z,100.00
2019-05-30T22:30:46.408Z,100.00
2019-05-30T22:33:54.254Z,100.00
2019-05-30T22:37:02.459Z,100.00
2019-05-30T22:40:10.101Z,100.00
2019-05-30T22:43:25.166Z,100.00
2019-05-30T22:46:26.541Z,100.00
2019-05-30T22:49:33.855Z,100.00
2019-05-30T22:52:41.144Z,100.00
2019-05-30T22:55:49.124Z,100.00
2019-05-30T22:58:56.533Z,100.00
2019-05-30T23:02:04.018Z,100.00
2019-05-30T23:05:11.637Z,100.00
2019-05-30T23:08:19.071Z,100.00
2019-05-30T23:11:26.664Z,100.00
2019-05-30T23:14:34.188Z,100.00
2019-05-30T23:17:41.672Z,100.00
2019-05-30T23:20:48.997Z,100.00
2019-05-30T23:23:57.307Z,100.00
2019-05-30T23:27:08.115Z,100.00
2019-05-30T23:30:14.363Z,100.00
2019-05-30T23:33:21.874Z,100.00
2019-05-30T23:36:29.632Z,100.00
2019-05-30T23:39:37.308Z,100.00
2019-05-30T23:42:44.504Z,100.00
2019-05-30T23:45:51.793Z,100.00
2019-05-30T23:48:59.897Z,100.00
2019-05-30T23:52:07.443Z,100.00
2019-05-30T23:55:15.309Z,100.00
2019-05-30T23:58:22.897Z,100.00
